Time,TemperatureF,DewpointF,PressureIn,WindDirection,WindDirectionDegrees,WindSpeedMPH,WindSpeedGustMPH,Humidity,HourlyPrecipIn,Conditions,Clouds,dailyrainin,SoftwareType,DateUTC
2013-06-18 00:00:00,68.2,67.6,29.85,North,0,0.0,0.0,98,0.00,CLR,,0.00,WeatherDisplay:10.37,2013-06-18 04:00:00,
2013-06-18 01:00:00,67.6,67.1,29.85,North,0,0.0,0.0,98,0.00,CLR,,0.00,WeatherDisplay:10.37,2013-06-18 05:00:00,
2013-06-18 02:00:00,67.1,66.5,29.85,North,0,0.0,0.0,98,0.00,CLR,,0.00,WeatherDisplay:10.37,2013-06-18 06:00:00,
2013-06-18 03:00:00,67.1,66.5,29.85,North,0,0.0,0.0,98,0.00,CLR,,0.00,WeatherDisplay:10.37,2013-06-18 07:00:00,
2013-06-18 04:00:00,66.9,66.3,29.85,North,0,0.0,0.0,98,0.00,CLR,,0.00,WeatherDisplay:10.37,2013-06-18 08:00:00,
2013-06-18 05:00:00,67.1,66.5,29.85,North,0,0.0,0.0,98,0.00,CLR,,0.00,WeatherDisplay:10.37,2013-06-18 09:00:00,
2013-06-18 06:00:00,66.6,66.0,29.85,North,0,0.0,0.0,98,0.00,CLR,,0.00,WeatherDisplay:10.37,2013-06-18 10:00:00,
2013-06-18 07:00:00,66.2,65.6,29.85,North,0,0.0,0.0,98,0.00,CLR,,0.00,WeatherDisplay:10.37,2013-06-18 11:00:00,
2013-06-18 08:00:00,66.9,66.3,29.85,North,0,0.0,0.0,98,0.00,CLR,,0.00,WeatherDisplay:10.37,2013-06-18 12:00:00,
2013-06-18 09:00:00,66.9,66.3,29.85,North,0,0.0,0.0,98,0.00,-RA,,0.00,WeatherDisplay:10.37,2013-06-18 13:00:00,
2013-06-18 10:00:00,68.5,68.0,29.85,North,0,0.0,0.0,98,0.00,CLR,,0.00,WeatherDisplay:10.37,2013-06-18 14:00:00,
2013-06-18 11:00:00,68.0,67.4,29.85,North,0,0.0,0.0,98,0.00,-RA,,0.00,WeatherDisplay:10.37,2013-06-18 15:00:00,
2013-06-18 12:00:00,69.1,68.5,29.85,North,0,0.0,0.0,98,0.00,CLR,,0.00,WeatherDisplay:10.37,2013-06-18 16:00:00,
2013-06-18 13:00:00,73.2,72.6,29.85,North,0,0.0,0.0,98,0.00,CLR,,0.00,WeatherDisplay:10.37,2013-06-18 17:00:00,
2013-06-18 14:00:00,72.9,72.3,29.85,North,0,0.0,0.0,98,0.00,-RA,,0.00,WeatherDisplay:10.37,2013-06-18 18:00:00,
2013-06-18 15:00:00,70.7,70.1,29.85,North,0,0.0,0.0,98,0.00,-RA,,0.00,WeatherDisplay:10.37,2013-06-18 19:00:00,
2013-06-18 16:00:00,71.6,71.0,29.85,North,0,0.0,0.0,98,0.00, +RA,,0.00,WeatherDisplay:10.37,2013-06-18 20:00:00,
2013-06-18 17:00:00,73.8,73.2,29.85,North,0,0.0,0.0,98,0.00,CLR,,0.00,WeatherDisplay:10.37,2013-06-18 21:00:00,
2013-06-18 18:00:00,72.9,72.3,29.85,North,0,0.0,0.0,98,0.00,-RA,,0.00,WeatherDisplay:10.37,2013-06-18 22:00:00,
2013-06-18 19:00:00,71.2,70.6,29.85,North,0,0.0,0.0,98,0.00,CLR,,0.00,WeatherDisplay:10.37,2013-06-18 23:00:00,
2013-06-18 20:00:00,72.5,71.9,29.85,North,0,0.0,0.0,98,0.00,CLR,,0.00,WeatherDisplay:10.37,2013-06-19 00:00:00,
2013-06-18 21:00:00,68.7,68.1,29.85,North,0,0.0,0.0,98,0.00,CLR,,0.00,WeatherDisplay:10.37,2013-06-19 01:00:00,
2013-06-18 22:00:00,67.1,66.5,29.85,North,0,0.0,0.0,98,0.00,CLR,,0.00,WeatherDisplay:10.37,2013-06-19 02:00:00,
2013-06-18 23:00:00,66.0,65.4,29.85,North,0,0.0,0.0,98,0.00,CLR,,0.00,WeatherDisplay:10.37,2013-06-19 03:00:00,